createdAt,value
2019-02-25T00:02:05.397Z,60.07
2019-02-25T00:04:46.595Z,54.23
2019-02-25T00:07:36.053Z,51.67
2019-02-25T00:10:14.166Z,52.47
2019-02-25T00:13:16.665Z,56.07
2019-02-25T00:15:59.394Z,55.30
2019-02-25T00:18:40.597Z,52.60
2019-02-25T00:21:23.017Z,54.93
2019-02-25T00:24:04.800Z,64.47
2019-02-25T00:26:46.847Z,62.30
2019-02-25T00:29:42.672Z,60.53
2019-02-25T00:32:26.929Z,55.90
2019-02-25T00:35:29.178Z,60.77
2019-02-25T00:38:13.471Z,55.60
2019-02-25T00:40:56.470Z,54.47
2019-02-25T00:43:39.378Z,56.03
2019-02-25T00:46:19.111Z,52.40
2019-02-25T00:49:00.637Z,56.30
2019-02-25T00:52:03.450Z,58.80
2019-02-25T00:54:46.753Z,62.50
2019-02-25T00:57:42.105Z,57.40
2019-02-25T01:00:31.538Z,55.27
2019-02-25T01:03:12.460Z,56.60
2019-02-25T01:05:55.417Z,61.17
2019-02-25T01:08:34.456Z,61.03
2019-02-25T01:11:24.322Z,57.30
2019-02-25T01:14:21.015Z,64.07
2019-02-25T01:17:02.950Z,59.90
2019-02-25T01:20:07.830Z,64.97
2019-02-25T01:22:49.781Z,58.73
2019-02-25T01:25:33.975Z,61.97
2019-02-25T01:28:14.692Z,57.73
2019-02-25T01:30:56.305Z,56.97
2019-02-25T01:33:36.670Z,56.53
2019-02-25T01:36:40.397Z,54.13
2019-02-25T01:39:24.889Z,59.27
2019-02-25T01:42:28.149Z,52.97
2019-02-25T01:45:10.730Z,55.17
2019-02-25T01:47:53.428Z,56.40
2019-02-25T01:50:36.028Z,57.10
2019-02-25T01:53:15.013Z,56.07
2019-02-25T01:55:57.743Z,50.27
2019-02-25T01:58:48.322Z,51.23
2019-02-25T02:01:30.870Z,52.73
2019-02-25T02:04:14.942Z,51.93
2019-02-25T02:06:53.063Z,48.60
2019-02-25T02:09:36.447Z,51.27
2019-02-25T02:12:19.417Z,47.90
2019-02-25T02:15:01.328Z,49.10
2019-02-25T02:17:43.465Z,47.10
2019-02-25T02:21:01.196Z,44.33
2019-02-25T02:23:45.272Z,44.03
2019-02-25T02:26:53.661Z,43.00
2019-02-25T02:29:36.104Z,43.37
2019-02-25T02:32:19.625Z,41.70
2019-02-25T02:35:04.048Z,41.00
2019-02-25T02:37:52.478Z,41.17
2019-02-25T02:40:35.804Z,39.70
2019-02-25T02:43:18.627Z,40.70
2019-02-25T02:46:04.150Z,42.57
2019-02-25T02:49:09.024Z,43.77
2019-02-25T02:51:50.533Z,43.57
2019-02-25T02:54:32.964Z,46.50
2019-02-25T02:57:15.386Z,45.10
2019-02-25T03:00:04.921Z,43.33
2019-02-25T03:02:48.914Z,42.30
2019-02-25T03:05:37.547Z,39.33
2019-02-25T03:08:15.855Z,40.93
2019-02-25T03:11:46.778Z,41.53
2019-02-25T03:14:30.154Z,38.93
2019-02-25T03:17:08.818Z,39.57
2019-02-25T03:19:51.591Z,46.90
2019-02-25T03:22:34.015Z,41.23
2019-02-25T03:25:17.249Z,41.93
2019-02-25T03:28:02.037Z,45.37
2019-02-25T03:30:45.133Z,40.00
2019-02-25T03:33:26.536Z,38.27
2019-02-25T03:36:14.962Z,37.63
2019-02-25T03:38:58.973Z,37.90
2019-02-25T03:41:39.755Z,39.20
2019-02-25T03:44:22.267Z,37.13
2019-02-25T03:47:04.063Z,39.13
2019-02-25T03:49:47.967Z,35.00
2019-02-25T03:52:33.403Z,37.23
2019-02-25T03:55:15.605Z,43.67
2019-02-25T03:57:55.958Z,45.17
2019-02-25T04:00:38.895Z,39.47
2019-02-25T04:03:21.870Z,36.20
2019-02-25T04:06:02.128Z,38.73
2019-02-25T04:08:50.606Z,39.47
2019-02-25T04:11:31.726Z,50.13
2019-02-25T04:14:14.652Z,46.23
2019-02-25T04:16:56.201Z,41.80
2019-02-25T04:19:51.285Z,72.13
2019-02-25T04:22:34.425Z,50.43
2019-02-25T04:25:18.231Z,43.27
2019-02-25T04:28:08.517Z,52.87
2019-02-25T04:30:56.014Z,46.33
2019-02-25T04:33:40.349Z,74.23
2019-02-25T04:36:22.406Z,60.00
2019-02-25T04:42:41.577Z,60.53
2019-02-25T04:45:41.186Z,102.00
2019-02-25T04:48:23.909Z,126.50
2019-02-25T04:51:16.319Z,88.87
2019-02-25T04:54:08.791Z,63.70
2019-02-25T04:56:57.616Z,50.97
2019-02-25T05:00:02.167Z,51.67
2019-02-25T05:03:05.340Z,58.13
2019-02-25T05:06:13.079Z,46.30
2019-02-25T05:09:01.930Z,42.33
2019-02-25T05:11:50.877Z,52.60
2019-02-25T05:14:39.408Z,46.00
2019-02-25T05:17:25.611Z,94.27
2019-02-25T05:20:39.093Z,111.53
2019-02-25T05:23:25.977Z,64.83
2019-02-25T05:26:18.587Z,46.00
2019-02-25T05:29:04.572Z,45.53
2019-02-25T05:31:56.431Z,50.93
2019-02-25T05:34:41.418Z,41.53
2019-02-25T05:37:34.922Z,54.67
2019-02-25T05:40:24.752Z,43.03
2019-02-25T05:43:05.484Z,39.00
2019-02-25T05:45:53.321Z,35.27
2019-02-25T05:48:39.134Z,33.93
2019-02-25T05:51:34.181Z,33.80
2019-02-25T05:54:17.659Z,32.47
2019-02-25T05:57:02.880Z,32.13
2019-02-25T06:00:04.985Z,34.13
2019-02-25T06:02:54.908Z,33.57
2019-02-25T06:05:45.698Z,32.13
2019-02-25T06:08:31.002Z,33.53
2019-02-25T06:11:19.685Z,30.70
2019-02-25T06:14:14.761Z,33.30
2019-02-25T06:17:08.522Z,37.17
2019-02-25T06:19:53.346Z,51.20
2019-02-25T06:22:54.781Z,38.23
2019-02-25T06:25:38.535Z,35.20
2019-02-25T06:28:31.514Z,35.43
2019-02-25T06:31:21.511Z,33.90
2019-02-25T06:34:10.941Z,38.13
2019-02-25T06:37:07.264Z,35.83
2019-02-25T06:40:00.396Z,35.43
2019-02-25T06:42:53.693Z,36.27
2019-02-25T06:45:39.097Z,34.90
2019-02-25T06:48:23.431Z,36.87
2019-02-25T06:51:07.892Z,37.40
2019-02-25T06:54:05.842Z,37.97
2019-02-25T06:56:58.743Z,38.40
2019-02-25T06:59:44.132Z,40.40
2019-02-25T07:02:45.050Z,39.40
2019-02-25T07:05:47.881Z,40.47
2019-02-25T07:09:05.027Z,40.03
2019-02-25T07:12:09.701Z,39.37
2019-02-25T07:15:19.479Z,38.10
2019-02-25T07:22:00.029Z,41.27
2019-02-25T07:25:04.871Z,41.53
2019-02-25T07:27:58.952Z,41.93
2019-02-25T07:31:06.752Z,39.73
2019-02-25T07:34:10.959Z,40.87
2019-02-25T07:37:15.699Z,40.23
2019-02-25T07:40:31.549Z,39.03
2019-02-25T07:43:44.076Z,40.93
2019-02-25T07:46:45.901Z,40.87
2019-02-25T07:49:37.658Z,41.13
2019-02-25T07:52:58.571Z,39.73
2019-02-25T07:55:49.798Z,42.87
2019-02-25T07:58:49.302Z,38.80
2019-02-25T08:01:51.870Z,45.87
2019-02-25T08:05:09.242Z,41.83
2019-02-25T08:08:13.465Z,45.70
2019-02-25T08:14:23.166Z,43.63
2019-02-25T08:17:19.494Z,43.80
2019-02-25T08:20:19.203Z,43.87
2019-02-25T08:23:24.886Z,40.97
2019-02-25T08:26:36.396Z,39.60
2019-02-25T08:30:01.352Z,41.17
2019-02-25T08:33:12.079Z,37.23
2019-02-25T08:37:01.975Z,37.60
2019-02-25T08:39:43.606Z,34.40
2019-02-25T08:42:37.006Z,31.97
2019-02-25T08:45:31.279Z,35.63
2019-02-25T08:48:25.233Z,34.17
2019-02-25T08:51:13.609Z,37.47
2019-02-25T08:53:55.735Z,33.17
2019-02-25T08:56:38.376Z,38.90
2019-02-25T08:59:23.308Z,46.53
2019-02-25T09:02:05.689Z,34.87
2019-02-25T09:05:00.411Z,32.83
2019-02-25T09:07:42.808Z,36.07
2019-02-25T09:10:24.056Z,38.90
2019-02-25T09:13:07.047Z,37.50
2019-02-25T09:15:47.264Z,38.47
2019-02-25T09:18:31.106Z,37.50
2019-02-25T09:21:15.574Z,42.07
2019-02-25T09:23:59.816Z,42.47
2019-02-25T09:26:48.142Z,41.53
2019-02-25T09:29:36.863Z,39.43
2019-02-25T09:32:25.612Z,32.97
2019-02-25T09:35:06.679Z,32.77
2019-02-25T09:38:00.543Z,34.57
2019-02-25T09:40:40.782Z,34.10
2019-02-25T09:43:25.312Z,34.00
2019-02-25T09:46:10.212Z,36.60
2019-02-25T09:48:57.033Z,36.10
2019-02-25T09:51:39.229Z,33.97
2019-02-25T09:54:22.695Z,35.60
2019-02-25T09:57:10.056Z,34.57
2019-02-25T09:59:55.423Z,32.87
2019-02-25T10:02:47.568Z,35.43
2019-02-25T10:05:33.277Z,36.90
2019-02-25T10:08:18.363Z,35.47
2019-02-25T10:10:59.403Z,40.03
2019-02-25T10:13:45.500Z,38.57
2019-02-25T10:16:35.392Z,38.43
2019-02-25T10:19:28.598Z,38.10
2019-02-25T10:22:09.911Z,39.47
2019-02-25T10:24:51.383Z,39.73
2019-02-25T10:27:37.459Z,38.77
2019-02-25T10:30:26.102Z,37.37
2019-02-25T10:33:11.048Z,36.70
2019-02-25T10:35:50.327Z,37.83
2019-02-25T10:38:39.516Z,42.87
2019-02-25T10:41:35.754Z,37.83
2019-02-25T10:44:23.879Z,46.43
2019-02-25T10:47:13.561Z,43.63
2019-02-25T10:49:52.086Z,44.47
2019-02-25T10:52:44.899Z,44.60
2019-02-25T10:55:40.060Z,55.10
2019-02-25T10:58:28.976Z,49.80
2019-02-25T11:01:17.492Z,47.37
2019-02-25T11:03:57.860Z,47.17
2019-02-25T11:06:41.571Z,52.63
2019-02-25T11:09:59.628Z,51.63
2019-02-25T11:12:53.819Z,50.20
2019-02-25T11:15:37.536Z,51.07
2019-02-25T11:18:20.356Z,52.97
2019-02-25T11:21:14.490Z,54.30
2019-02-25T11:24:01.832Z,53.20
2019-02-25T11:26:43.890Z,54.43
2019-02-25T11:29:27.490Z,54.20
2019-02-25T11:32:14.321Z,64.77
2019-02-25T11:35:01.303Z,58.10
2019-02-25T11:38:17.979Z,55.90
2019-02-25T11:41:07.100Z,69.37
2019-02-25T11:43:57.210Z,63.20
2019-02-25T11:46:53.431Z,75.33
2019-02-25T11:49:54.394Z,71.37
2019-02-25T11:52:42.326Z,64.27
2019-02-25T11:55:26.331Z,62.70
2019-02-25T11:58:21.667Z,63.97
2019-02-25T12:01:35.843Z,63.37
2019-02-25T12:04:26.035Z,72.53
2019-02-25T12:07:23.483Z,71.47
2019-02-25T12:10:18.079Z,80.33
2019-02-25T12:13:29.905Z,76.03
2019-02-25T12:16:49.283Z,66.70
2019-02-25T12:19:41.287Z,67.93
2019-02-25T12:22:31.299Z,67.50
2019-02-25T12:25:15.685Z,64.73
2019-02-25T12:28:16.641Z,67.53
2019-02-25T12:31:05.872Z,69.97
2019-02-25T12:33:57.539Z,64.50
2019-02-25T12:36:52.702Z,66.20
2019-02-25T12:39:40.440Z,63.33
2019-02-25T12:42:40.495Z,66.97
2019-02-25T12:45:26.913Z,63.57
2019-02-25T12:48:33.790Z,67.43
2019-02-25T12:51:30.707Z,84.17
2019-02-25T12:54:38.588Z,85.93
2019-02-25T12:57:37.865Z,82.70
2019-02-25T13:00:41.713Z,70.23
2019-02-25T13:04:15.721Z,67.17
2019-02-25T13:07:11.523Z,57.70
2019-02-25T13:10:23.283Z,61.07
2019-02-25T13:13:51.285Z,64.50
2019-02-25T13:16:38.916Z,57.60
2019-02-25T13:19:36.236Z,57.57
2019-02-25T13:23:06.559Z,60.67
2019-02-25T13:26:12.275Z,61.27
2019-02-25T13:29:19.035Z,58.67
2019-02-25T13:32:34.442Z,56.40
2019-02-25T13:35:29.680Z,52.50
2019-02-25T13:38:18.879Z,52.00
2019-02-25T13:41:31.216Z,57.17
2019-02-25T13:44:47.653Z,62.50
2019-02-25T13:47:55.138Z,56.27
2019-02-25T13:51:20.060Z,51.00
2019-02-25T13:57:24.093Z,49.57
2019-02-25T14:00:36.270Z,49.40
2019-02-25T14:03:42.369Z,45.57
2019-02-25T14:06:34.226Z,63.57
2019-02-25T14:10:09.353Z,43.47
2019-02-25T14:13:01.792Z,41.30
2019-02-25T14:19:23.166Z,38.43
2019-02-25T14:22:35.735Z,35.30
2019-02-25T14:26:03.961Z,33.97
2019-02-25T14:29:17.453Z,35.63
2019-02-25T14:32:17.658Z,34.53
2019-02-25T14:35:38.580Z,32.67
2019-02-25T14:39:13.035Z,32.80
2019-02-25T14:42:28.954Z,31.43
2019-02-25T14:46:04.774Z,30.57
2019-02-25T14:49:08.229Z,31.83
2019-02-25T14:52:24.383Z,32.43
2019-02-25T14:55:40.685Z,34.20
2019-02-25T14:59:00.604Z,35.83
2019-02-25T15:02:08.238Z,35.80
2019-02-25T15:05:12.730Z,38.17
2019-02-25T15:07:59.242Z,37.13
2019-02-25T15:11:17.900Z,38.47
2019-02-25T15:14:25.788Z,35.13
2019-02-25T15:17:48.217Z,98.10
2019-02-25T15:21:00.390Z,83.77
2019-02-25T15:24:33.102Z,44.90
2019-02-25T15:27:23.170Z,148.90
2019-02-25T15:30:16.677Z,48.53
2019-02-25T15:33:06.187Z,40.50
2019-02-25T15:39:04.362Z,36.40
2019-02-25T15:42:05.382Z,39.90
2019-02-25T15:44:57.570Z,36.97
2019-02-25T15:47:44.904Z,35.37
2019-02-25T15:50:33.603Z,35.23
2019-02-25T15:53:16.255Z,36.23
2019-02-25T15:56:05.923Z,35.47
2019-02-25T15:59:12.166Z,38.47
2019-02-25T16:02:14.198Z,37.20
2019-02-25T16:04:59.441Z,34.73
2019-02-25T16:07:51.888Z,36.13
2019-02-25T16:11:00.308Z,35.80
2019-02-25T16:14:04.144Z,36.87
2019-02-25T16:17:00.625Z,36.53
2019-02-25T16:19:53.157Z,114.53
2019-02-25T16:22:44.101Z,73.47
2019-02-25T16:28:55.147Z,40.17
2019-02-25T16:31:41.120Z,38.07
2019-02-25T16:34:42.672Z,38.90
2019-02-25T16:37:42.687Z,40.07
2019-02-25T16:40:28.725Z,39.50
2019-02-25T16:43:28.105Z,36.33
2019-02-25T16:46:15.695Z,37.63
2019-02-25T16:48:59.750Z,39.27
2019-02-25T16:51:41.868Z,40.53
2019-02-25T16:54:30.096Z,43.20
2019-02-25T16:57:16.433Z,46.93
2019-02-25T17:00:07.681Z,46.03
2019-02-25T17:02:49.645Z,46.47
2019-02-25T17:05:32.168Z,47.33
2019-02-25T17:08:42.764Z,46.20
2019-02-25T17:11:31.748Z,47.77
2019-02-25T17:14:18.920Z,48.67
2019-02-25T17:17:07.774Z,47.73
2019-02-25T17:19:56.527Z,46.73
2019-02-25T17:22:49.830Z,49.43
2019-02-25T17:25:31.658Z,45.57
2019-02-25T17:28:19.845Z,45.43
2019-02-25T17:31:16.229Z,47.13
2019-02-25T17:34:16.510Z,46.83
2019-02-25T17:37:05.949Z,48.17
2019-02-25T17:39:54.516Z,43.97
2019-02-25T17:42:36.012Z,46.70
2019-02-25T17:45:22.462Z,47.47
2019-02-25T17:48:05.469Z,48.23
2019-02-25T17:50:44.064Z,44.00
2019-02-25T17:53:32.603Z,40.17
2019-02-25T17:56:12.579Z,41.33
2019-02-25T17:58:56.204Z,39.70
2019-02-25T18:01:37.407Z,41.07
2019-02-25T18:04:26.582Z,48.20
2019-02-25T18:07:15.836Z,41.50
2019-02-25T18:10:01.194Z,42.20
2019-02-25T18:12:44.395Z,41.53
2019-02-25T18:15:28.389Z,47.00
2019-02-25T18:18:14.663Z,45.37
2019-02-25T18:21:18.091Z,46.07
2019-02-25T18:23:56.388Z,45.33
2019-02-25T18:26:37.312Z,44.70
2019-02-25T18:29:19.003Z,46.67
2019-02-25T18:32:03.698Z,44.33
2019-02-25T18:34:46.125Z,44.23
2019-02-25T18:37:28.839Z,42.80
2019-02-25T18:40:27.379Z,45.37
2019-02-25T18:43:09.383Z,44.87
2019-02-25T18:46:05.456Z,45.27
2019-02-25T18:48:49.210Z,44.83
2019-02-25T18:51:32.503Z,40.67
2019-02-25T18:54:16.899Z,40.47
2019-02-25T18:57:13.015Z,40.97
2019-02-25T18:59:59.157Z,41.13
2019-02-25T19:02:38.055Z,41.20
2019-02-25T19:05:31.315Z,38.63
2019-02-25T19:08:29.984Z,37.23
2019-02-25T19:11:12.916Z,41.77
2019-02-25T19:13:54.340Z,42.03
2019-02-25T19:16:36.447Z,45.43
2019-02-25T19:19:19.247Z,41.80
2019-02-25T19:22:05.275Z,44.47
2019-02-25T19:24:51.221Z,44.50
2019-02-25T19:27:31.660Z,41.83
2019-02-25T19:30:12.519Z,44.63
2019-02-25T19:32:50.518Z,43.50
2019-02-25T19:35:33.026Z,44.10
2019-02-25T19:38:17.564Z,45.00
2019-02-25T19:40:58.437Z,44.37
2019-02-25T19:43:41.593Z,45.80
2019-02-25T19:46:27.620Z,42.77
2019-02-25T19:49:11.489Z,47.23
2019-02-25T19:51:52.614Z,45.60
2019-02-25T19:54:40.814Z,48.33
2019-02-25T19:57:14.020Z,47.10
2019-02-25T20:00:00.222Z,43.67
2019-02-25T20:02:48.041Z,42.53
2019-02-25T20:05:33.494Z,46.10
2019-02-25T20:08:18.847Z,45.23
2019-02-25T20:11:00.878Z,45.10
2019-02-25T20:13:43.115Z,47.53
2019-02-25T20:16:35.501Z,49.67
2019-02-25T20:19:17.840Z,50.37
2019-02-25T20:21:58.455Z,48.67
2019-02-25T20:24:42.351Z,54.87
2019-02-25T20:27:21.517Z,59.33
2019-02-25T20:30:04.969Z,60.10
2019-02-25T20:32:48.438Z,55.90
2019-02-25T20:35:34.553Z,59.90
2019-02-25T20:38:07.660Z,54.50
2019-02-25T20:40:53.092Z,54.47
2019-02-25T20:43:35.902Z,57.23
2019-02-25T20:46:14.782Z,57.43
2019-02-25T20:48:57.776Z,59.87
2019-02-25T20:51:39.116Z,59.13
2019-02-25T20:54:23.682Z,67.90
2019-02-25T20:57:12.096Z,60.23
2019-02-25T20:59:55.419Z,63.33
2019-02-25T21:02:35.295Z,66.27
2019-02-25T21:05:16.921Z,70.83
2019-02-25T21:08:02.813Z,66.73
2019-02-25T21:10:49.622Z,60.23
2019-02-25T21:13:33.154Z,63.73
2019-02-25T21:16:12.307Z,63.27
2019-02-25T21:18:55.751Z,59.83
2019-02-25T21:21:38.959Z,59.10
2019-02-25T21:24:21.423Z,57.17
2019-02-25T21:27:03.765Z,59.87
2019-02-25T21:29:45.667Z,58.57
2019-02-25T21:32:28.167Z,53.83
2019-02-25T21:35:14.016Z,50.23
2019-02-25T21:37:55.079Z,52.77
2019-02-25T21:40:36.190Z,48.40
2019-02-25T21:43:23.521Z,49.97
2019-02-25T21:46:05.238Z,46.13
2019-02-25T21:48:44.944Z,46.63
2019-02-25T21:51:28.084Z,45.63
2019-02-25T21:54:08.996Z,44.27
2019-02-25T21:56:50.375Z,44.43
2019-02-25T21:59:32.282Z,44.50
2019-02-25T22:02:14.478Z,42.43
2019-02-25T22:04:57.002Z,41.10
2019-02-25T22:07:39.005Z,39.40
2019-02-25T22:10:23.254Z,43.20
2019-02-25T22:13:08.818Z,43.90
2019-02-25T22:15:45.390Z,39.90
2019-02-25T22:18:29.550Z,43.87
2019-02-25T22:21:12.237Z,38.67
2019-02-25T22:23:56.154Z,40.73
2019-02-25T22:26:37.670Z,39.60
2019-02-25T22:29:19.061Z,40.37
2019-02-25T22:31:59.657Z,37.23
2019-02-25T22:34:43.680Z,38.97
2019-02-25T22:37:24.427Z,39.90
2019-02-25T22:40:07.874Z,38.27
2019-02-25T22:42:47.977Z,35.87
2019-02-25T22:45:27.682Z,36.10
2019-02-25T22:48:13.907Z,36.90
2019-02-25T22:50:55.311Z,38.37
2019-02-25T22:53:36.377Z,36.17
2019-02-25T22:56:21.603Z,37.67
2019-02-25T22:59:02.858Z,33.67
2019-02-25T23:01:42.890Z,36.83
2019-02-25T23:04:26.346Z,37.83
2019-02-25T23:07:09.029Z,39.27
2019-02-25T23:09:52.128Z,38.87
2019-02-25T23:12:33.005Z,36.80
2019-02-25T23:15:13.317Z,38.87
2019-02-25T23:18:04.869Z,38.77
2019-02-25T23:20:39.263Z,37.40
2019-02-25T23:23:18.593Z,39.80
2019-02-25T23:25:59.021Z,36.57
2019-02-25T23:28:42.415Z,36.63
2019-02-25T23:31:29.572Z,33.73
2019-02-25T23:34:12.287Z,38.20
2019-02-25T23:36:56.176Z,34.77
2019-02-25T23:39:38.264Z,36.47
2019-02-25T23:42:20.578Z,34.33
2019-02-25T23:45:01.979Z,36.83
2019-02-25T23:47:44.113Z,95.00
2019-02-25T23:50:27.278Z,63.67
2019-02-25T23:53:06.085Z,40.60
2019-02-25T23:55:50.068Z,36.87
2019-02-25T23:58:32.432Z,34.47
